Time;durP1;ratioP1;P1;durP2;ratioP2;P2;SDS_P1;SDS_P2;PMS_P1;PMS_P2;Temp;Humidity;BMP_temperature;BMP_pressure;BME280_temperature;BME280_humidity;BME280_pressure;Samples;Min_cycle;Max_cycle;Signal;HPM_P1;HPM_P2
2023/08/16 00:02:57;;;;;;;10.10;8.50;;;;;;;21.91;100.00;100291.29;181460;1257;43706;-89
2023/08/16 00:07:02;;;;;;;8.60;7.40;;;;;;;21.87;100.00;100290.85;181452;1256;57282;-89
2023/08/16 00:11:06;;;;;;;11.10;9.30;;;;;;;21.87;100.00;100291.69;181481;1256;43970;-90
2023/08/16 00:15:10;;;;;;;9.20;8.30;;;;;;;21.87;100.00;100292.88;181489;1257;44073;-89
2023/08/16 00:19:13;;;;;;;9.70;7.80;;;;;;;21.77;100.00;100295.41;181456;1256;43863;-89
2023/08/16 00:23:17;;;;;;;22.20;10.50;;;;;;;21.70;100.00;100291.21;181546;1257;43830;-89
2023/08/16 00:27:20;;;;;;;10.70;8.80;;;;;;;21.64;100.00;100292.20;181657;1256;59468;-89
2023/08/16 00:31:24;;;;;;;8.60;7.70;;;;;;;21.61;100.00;100291.71;181368;1256;43740;-89
2023/08/16 00:35:27;;;;;;;14.90;9.70;;;;;;;21.63;100.00;100291.23;181410;1256;43864;-89
2023/08/16 00:39:31;;;;;;;12.40;8.70;;;;;;;21.65;100.00;100295.48;181452;1257;44133;-88
2023/08/16 00:43:34;;;;;;;11.40;8.70;;;;;;;21.68;100.00;100300.45;181484;1256;44205;-89
2023/08/16 00:47:38;;;;;;;10.00;7.80;;;;;;;21.71;100.00;100299.63;181519;1256;57921;-89
2023/08/16 00:51:43;;;;;;;9.60;8.70;;;;;;;21.76;100.00;100298.20;181647;1256;44062;-89
2023/08/16 00:55:47;;;;;;;9.10;8.20;;;;;;;21.79;100.00;100302.73;181413;1256;43787;-89
2023/08/16 00:59:50;;;;;;;10.90;9.60;;;;;;;21.82;100.00;100302.67;181524;1256;43729;-89
2023/08/16 01:03:55;;;;;;;8.10;6.60;;;;;;;21.80;100.00;100304.35;181682;1256;43862;-89
2023/08/16 01:07:59;;;;;;;9.10;8.10;;;;;;;21.80;100.00;100301.86;181559;1256;58119;-89
2023/08/16 01:12:10;;;;;;;9.80;7.30;;;;;;;21.82;100.00;100308.63;181458;1256;44151;-89
2023/08/16 01:16:16;;;;;;;8.30;7.50;;;;;;;21.81;100.00;100319.23;181370;1256;44202;-89
2023/08/16 01:20:21;;;;;;;9.10;7.40;;;;;;;21.71;100.00;100338.25;181411;1256;43669;-89
2023/08/16 01:24:34;;;;;;;7.80;6.90;;;;;;;21.71;100.00;100334.78;181697;1256;43710;-89
2023/08/16 01:28:39;;;;;;;10.00;8.40;;;;;;;21.66;100.00;100331.21;181463;1256;58179;-89
2023/08/16 01:32:43;;;;;;;10.20;8.40;;;;;;;21.67;100.00;100326.09;181564;1257;43783;-88
2023/08/16 01:36:46;;;;;;;12.20;7.50;;;;;;;21.69;100.00;100322.98;181535;1256;43857;-89
2023/08/16 01:40:56;;;;;;;9.80;7.70;;;;;;;21.66;100.00;100319.84;181542;1256;44026;-89
2023/08/16 01:45:00;;;;;;;8.60;7.70;;;;;;;21.70;100.00;100321.38;181472;1256;44092;-90
2023/08/16 01:49:06;;;;;;;8.60;7.60;;;;;;;21.73;100.00;100326.60;181346;1256;59567;-89
2023/08/16 01:53:09;;;;;;;;;;;;;;;21.67;100.00;100332.46;181499;1256;44199;-90
2023/08/16 01:57:13;;;;;;;12.90;8.40;;;;;;;21.59;100.00;100332.91;181547;1256;45017;-89
2023/08/16 02:01:17;;;;;;;9.90;8.90;;;;;;;21.50;100.00;100340.95;181397;1256;44099;-90
2023/08/16 02:05:20;;;;;;;12.10;8.00;;;;;;;21.39;100.00;100339.52;181428;1256;44573;-89
2023/08/16 02:09:24;;;;;;;8.30;7.50;;;;;;;21.31;100.00;100343.98;181451;1256;58058;-88
2023/08/16 02:13:27;;;;;;;15.70;9.30;;;;;;;21.29;100.00;100350.14;181411;1257;43932;-89
2023/08/16 02:17:31;;;;;;;10.90;8.70;;;;;;;21.34;100.00;100344.14;181383;1256;44151;-89
2023/08/16 02:21:35;;;;;;;10.00;9.00;;;;;;;21.36;100.00;100341.50;181475;1257;43814;-88
2023/08/16 02:25:39;;;;;;;17.00;9.00;;;;;;;21.36;100.00;100340.29;181456;1256;44235;-89
2023/08/16 02:29:43;;;;;;;17.60;10.10;;;;;;;21.34;100.00;100342.31;181472;1256;59565;-88
2023/08/16 02:33:47;;;;;;;12.40;10.10;;;;;;;21.35;100.00;100339.73;181359;1257;43811;-88
2023/08/16 02:37:51;;;;;;;10.00;8.20;;;;;;;21.36;100.00;100337.25;181378;1257;43809;-89
2023/08/16 02:41:54;;;;;;;11.20;7.80;;;;;;;21.36;100.00;100337.88;181425;1256;43834;-88
2023/08/16 02:45:58;;;;;;;8.80;7.80;;;;;;;21.41;100.00;100334.25;181345;1257;44231;-88
2023/08/16 02:50:01;;;;;;;8.80;7.90;;;;;;;21.45;100.00;100330.63;181439;1256;58010;-88
2023/08/16 02:54:06;;;;;;;12.90;9.30;;;;;;;21.47;100.00;100330.39;181313;1257;44195;-87
2023/08/16 02:58:09;;;;;;;9.10;8.20;;;;;;;21.43;100.00;100332.69;181536;1256;44012;-87
2023/08/16 03:02:13;;;;;;;10.90;9.70;;;;;;;21.39;100.00;100335.56;181276;1256;43949;-89
2023/08/16 03:06:17;;;;;;;11.30;9.60;;;;;;;21.38;100.00;100336.80;181424;1257;44059;-88
2023/08/16 03:10:20;;;;;;;9.60;8.70;;;;;;;21.41;100.00;100343.81;181307;1257;58235;-89
2023/08/16 03:14:24;;;;;;;11.20;9.10;;;;;;;21.42;100.00;100350.88;181276;1256;43755;-88
2023/08/16 03:18:28;;;;;;;22.10;11.00;;;;;;;21.45;100.00;100351.61;181418;1256;44088;-87
2023/08/16 03:22:31;;;;;;;15.00;9.60;;;;;;;21.41;100.00;100355.35;181198;1256;44242;-87
2023/08/16 03:26:36;;;;;;;18.20;10.50;;;;;;;21.37;100.00;100358.90;181356;1256;44139;-88
2023/08/16 03:30:40;;;;;;;14.30;10.30;;;;;;;21.34;100.00;100359.54;181421;1256;57958;-89
2023/08/16 03:34:44;;;;;;;16.00;9.20;;;;;;;21.36;100.00;100364.67;181352;1256;44169;-88
2023/08/16 03:38:47;;;;;;;11.60;9.20;;;;;;;21.38;100.00;100367.27;181579;1256;43993;-89
2023/08/16 03:42:51;;;;;;;12.70;9.00;;;;;;;21.42;100.00;100367.98;181412;1256;44192;-89
2023/08/16 03:46:56;;;;;;;10.20;9.20;;;;;;;21.46;100.00;100368.71;181384;1256;44058;-89
2023/08/16 03:51:00;;;;;;;11.60;9.40;;;;;;;21.52;100.00;100372.00;181468;1256;58043;-89
2023/08/16 03:55:04;;;;;;;10.40;9.40;;;;;;;21.57;100.00;100381.83;181348;1256;43984;-89
2023/08/16 03:59:07;;;;;;;12.50;11.30;;;;;;;21.65;100.00;100386.25;181495;1256;43901;-88
2023/08/16 04:03:10;;;;;;;11.80;10.00;;;;;;;21.71;100.00;100384.45;181505;1257;44145;-89
2023/08/16 04:07:14;;;;;;;10.00;9.00;;;;;;;21.68;100.00;100389.44;181455;1256;44026;-89
2023/08/16 04:11:17;;;;;;;10.90;9.70;;;;;;;21.68;100.00;100393.82;181477;1256;57084;-89
2023/08/16 04:15:20;;;;;;;11.80;8.90;;;;;;;21.82;100.00;100401.90;181502;1256;44232;-88
2023/08/16 04:19:24;;;;;;;12.20;10.20;;;;;;;22.36;100.00;100409.66;181167;1258;44101;-90
2023/08/16 04:23:27;;;;;;;24.30;11.90;;;;;;;23.11;100.00;100405.13;181099;1259;43864;-88
2023/08/16 04:27:31;;;;;;;12.10;9.50;;;;;;;23.66;100.00;100395.58;181209;1258;44023;-87
2023/08/16 04:31:34;;;;;;;15.30;11.20;;;;;;;23.79;100.00;100391.73;181311;1256;58228;-88
2023/08/16 04:35:37;;;;;;;11.80;10.60;;;;;;;23.96;100.00;100396.67;181165;1257;43917;-88
2023/08/16 04:39:41;;;;;;;12.50;11.00;;;;;;;24.42;100.00;100403.92;181230;1258;43848;-88
2023/08/16 04:43:44;;;;;;;15.50;10.10;;;;;;;25.14;100.00;100403.36;181156;1257;46051;-88
2023/08/16 04:47:47;;;;;;;9.70;8.70;;;;;;;25.84;100.00;100401.73;181171;1257;43728;-88
2023/08/16 04:51:51;;;;;;;13.70;10.20;;;;;;;26.49;98.30;100398.66;181168;1258;58106;-88
2023/08/16 04:55:54;;;;;;;9.20;8.10;;;;;;;26.96;95.15;100400.14;181109;1257;43847;-89
2023/08/16 04:59:58;;;;;;;10.00;9.00;;;;;;;27.13;93.59;100399.94;181183;1257;44034;-89
2023/08/16 05:04:03;;;;;;;10.00;8.70;;;;;;;27.39;93.04;100404.13;181129;1260;43916;-89
2023/08/16 05:08:07;;;;;;;16.50;11.00;;;;;;;27.86;91.39;100409.35;180944;1257;385989;-89
2023/08/16 05:12:10;;;;;;;15.90;9.50;;;;;;;28.27;88.71;100408.63;181162;1260;60146;-89
2023/08/16 05:16:14;;;;;;;11.50;9.70;;;;;;;28.48;86.78;100407.42;181197;1257;43775;-88
2023/08/16 05:20:17;;;;;;;9.40;8.50;;;;;;;28.55;85.97;100412.25;181450;1257;43919;-88
2023/08/16 05:24:21;;;;;;;7.70;7.00;;;;;;;28.63;86.10;100412.67;181271;1256;44131;-89
2023/08/16 05:28:24;;;;;;;8.30;7.60;;;;;;;28.82;86.03;100414.67;181371;1256;43800;-89
2023/08/16 05:32:27;;;;;;;11.40;7.60;;;;;;;29.06;85.29;100417.79;181422;1256;58399;-89
2023/08/16 05:36:31;;;;;;;11.80;9.30;;;;;;;29.22;84.32;100420.60;181349;1257;43972;-88
2023/08/16 05:40:34;;;;;;;20.20;9.00;;;;;;;29.43;83.89;100426.48;181301;1257;43830;-88
2023/08/16 05:44:38;;;;;;;11.00;7.70;;;;;;;29.61;84.36;100433.30;181463;1256;43958;-89
2023/08/16 05:48:41;;;;;;;10.00;7.70;;;;;;;29.56;83.53;100429.93;181408;1256;43834;-89
2023/08/16 05:52:45;;;;;;;10.40;9.40;;;;;;;29.58;83.72;100440.71;181420;1256;59443;-89
2023/08/16 05:56:48;;;;;;;9.30;7.30;;;;;;;29.54;83.82;100446.08;181411;1256;44187;-89
2023/08/16 06:00:52;;;;;;;11.70;8.20;;;;;;;29.51;84.04;100443.51;181363;1256;44046;-89
2023/08/16 06:04:58;;;;;;;11.00;9.40;;;;;;;28.99;86.27;100442.57;181303;1256;43820;-89
2023/08/16 06:09:02;;;;;;;36.40;14.10;;;;;;;28.20;90.92;100452.98;181324;1257;43787;-88
2023/08/16 06:13:06;;;;;;;9.60;8.60;;;;;;;28.18;91.78;100451.96;181393;1256;59259;-87
2023/08/16 06:17:09;;;;;;;10.00;9.00;;;;;;;28.39;92.75;100455.54;181307;1257;44012;-87
2023/08/16 06:21:13;;;;;;;11.70;10.40;;;;;;;28.40;91.35;100454.09;181257;1257;43736;-87
2023/08/16 06:25:16;;;;;;;9.50;8.10;;;;;;;28.66;91.32;100456.52;181298;1256;44394;-87
2023/08/16 06:29:20;;;;;;;11.90;9.10;;;;;;;28.55;90.10;100458.77;181248;1256;43856;-86
2023/08/16 06:33:23;;;;;;;12.10;9.80;;;;;;;28.41;92.22;100460.18;181368;1256;58171;-87
2023/08/16 06:37:26;;;;;;;13.00;10.40;;;;;;;28.31;92.12;100463.23;181418;1256;43688;-86
2023/08/16 06:41:30;;;;;;;11.70;10.40;;;;;;;28.19;92.30;100463.31;181270;1256;43894;-87
2023/08/16 06:45:33;;;;;;;12.30;11.20;;;;;;;27.92;93.55;100465.45;181428;1256;43955;-87
2023/08/16 06:49:38;;;;;;;12.10;9.90;;;;;;;27.91;94.71;100465.27;181410;1256;43790;-87
2023/08/16 06:53:45;;;;;;;14.10;9.40;;;;;;;27.81;94.37;100469.19;181230;1257;58050;-87
2023/08/16 06:57:50;;;;;;;10.90;9.10;;;;;;;27.69;96.42;100468.91;181302;1256;43773;-87
2023/08/16 07:01:56;;;;;;;9.50;7.90;;;;;;;27.77;95.24;100470.81;181447;1257;43690;-85
2023/08/16 07:06:01;;;;;;;10.40;8.80;;;;;;;27.79;95.21;100470.29;181250;1256;44160;-87
2023/08/16 07:10:07;;;;;;;10.60;9.20;;;;;;;27.99;93.69;100469.40;181309;1256;50622;-86
2023/08/16 07:14:11;;;;;;;9.20;8.30;;;;;;;28.25;94.05;100468.89;181287;1256;60636;-87
2023/08/16 07:18:17;;;;;;;11.30;10.20;;;;;;;28.67;92.43;100470.89;181271;1256;44089;-86
2023/08/16 07:22:24;;;;;;;25.20;11.90;;;;;;;28.75;92.32;100472.71;181295;1257;43669;-87
2023/08/16 07:26:28;;;;;;;15.10;9.30;;;;;;;28.94;91.40;100474.85;181378;1257;43656;-87
2023/08/16 07:30:32;;;;;;;11.20;7.70;;;;;;;29.11;88.48;100472.54;181370;1256;43705;-87
2023/08/16 07:34:35;;;;;;;9.90;8.80;;;;;;;29.22;88.77;100473.77;181387;1256;59780;-86
2023/08/16 07:38:39;;;;;;;11.60;8.60;;;;;;;29.25;87.63;100476.45;181238;1257;43919;-87
2023/08/16 07:42:43;;;;;;;8.90;8.00;;;;;;;29.42;88.97;100479.95;181335;1256;43885;-87
2023/08/16 07:46:46;;;;;;;14.50;9.20;;;;;;;29.70;86.23;100486.46;181316;1257;43760;-87
2023/08/16 07:50:50;;;;;;;9.50;8.60;;;;;;;29.94;88.26;100485.09;181380;1257;43942;-87
2023/08/16 07:54:55;;;;;;;12.20;9.10;;;;;;;30.19;86.17;100479.86;181332;1257;58534;-88
2023/08/16 07:58:59;;;;;;;12.60;7.30;;;;;;;30.45;82.12;100477.21;181395;1257;44015;-87
2023/08/16 08:03:03;;;;;;;8.50;7.70;;;;;;;30.66;79.93;100472.33;181340;1256;43925;-88
2023/08/16 08:07:07;;;;;;;9.90;7.80;;;;;;;30.57;78.90;100470.72;181460;1257;43894;-88
2023/08/16 08:11:10;;;;;;;7.90;7.00;;;;;;;30.66;81.38;100462.00;181407;1257;43799;-87
2023/08/16 08:15:14;;;;;;;8.70;7.70;;;;;;;30.81;80.00;100462.14;181331;1256;57244;-87
2023/08/16 08:19:18;;;;;;;7.80;7.10;;;;;;;31.05;78.74;100464.09;181345;1257;44299;-87
2023/08/16 08:23:21;;;;;;;8.60;7.80;;;;;;;31.11;78.30;100467.45;181423;1257;43931;-85
2023/08/16 08:27:25;;;;;;;18.40;7.80;;;;;;;31.24;75.48;100477.04;181438;1257;43709;-87
2023/08/16 08:31:29;;;;;;;9.60;8.40;;;;;;;31.06;75.44;100476.95;181394;1257;43827;-88
2023/08/16 08:35:33;;;;;;;10.10;8.70;;;;;;;31.08;76.78;100473.90;181349;1257;60213;-88
2023/08/16 08:39:37;;;;;;;10.00;6.80;;;;;;;31.15;77.22;100476.11;181408;1256;44146;-87
2023/08/16 08:43:41;;;;;;;7.90;7.20;;;;;;;31.01;74.05;100480.63;181330;1257;43628;-86
2023/08/16 08:48:04;;;;;;;7.80;6.80;;;;;;;30.70;75.83;100482.70;181564;1257;44126;-90
2023/08/16 08:52:08;;;;;;;8.20;7.40;;;;;;;30.52;76.84;100486.17;181410;1257;43763;-90
2023/08/16 08:56:15;;;;;;;8.60;7.60;;;;;;;30.45;80.84;100481.21;181338;1256;59270;-89
2023/08/16 09:00:20;;;;;;;9.60;8.00;;;;;;;30.44;82.37;100487.99;181324;1257;43797;-89
2023/08/16 09:04:24;;;;;;;;;;;;;;;30.51;83.20;100496.66;181374;1257;43801;-90
2023/08/16 09:08:28;;;;;;;14.40;9.20;;;;;;;30.64;82.54;100494.60;181575;1257;43838;-87
2023/08/16 09:12:32;;;;;;;9.80;8.80;;;;;;;30.67;82.14;100489.64;181315;1256;43804;-88
2023/08/16 09:16:35;;;;;;;13.80;10.80;;;;;;;30.74;82.01;100497.63;181368;1257;58299;-87
2023/08/16 09:20:40;;;;;;;8.50;7.60;;;;;;;30.88;80.62;100500.65;181369;1256;43773;-87
2023/08/16 09:24:43;;;;;;;9.40;8.50;;;;;;;31.05;80.85;100496.16;181466;1257;43701;-87
2023/08/16 09:28:47;;;;;;;10.50;7.90;;;;;;;31.24;80.14;100493.96;181391;1257;44246;-87
2023/08/16 09:32:52;;;;;;;8.10;7.40;;;;;;;31.32;79.52;100492.67;181313;1257;43823;-87
2023/08/16 09:36:56;;;;;;;7.40;6.70;;;;;;;31.42;78.85;100493.86;181383;1257;59577;-87
2023/08/16 09:41:00;;;;;;;7.00;6.40;;;;;;;31.50;75.40;100495.80;181428;1257;44099;-86
2023/08/16 09:45:04;;;;;;;8.00;7.10;;;;;;;31.63;75.44;100498.01;181298;1257;43700;-87
2023/08/16 09:49:10;;;;;;;8.80;8.00;;;;;;;31.71;76.20;100496.86;181384;1257;43693;-87
2023/08/16 09:53:14;;;;;;;6.80;6.10;;;;;;;31.71;76.52;100495.59;181240;1257;43594;-89
2023/08/16 09:57:37;;;;;;;9.30;7.10;;;;;;;31.60;77.17;100488.12;181411;1257;58732;-89
2023/08/16 10:01:41;;;;;;;8.50;7.60;;;;;;;31.50;76.89;100485.91;181444;1257;43916;-89
2023/08/16 10:05:50;;;;;;;8.90;8.00;;;;;;;31.53;79.27;100486.27;181438;1257;43849;-89
2023/08/16 10:09:54;;;;;;;7.70;6.80;;;;;;;31.55;77.97;100479.41;181368;1257;43836;-89
2023/08/16 10:13:58;;;;;;;10.30;6.90;;;;;;;31.48;78.14;100476.71;181447;1257;43827;-88
2023/08/16 10:18:06;;;;;;;;;;;;;;;31.54;76.53;100478.96;181434;1256;58819;-88
2023/08/16 10:22:19;;;;;;;10.00;7.70;;;;;;;31.66;75.90;100481.10;181372;1257;43704;-88
2023/08/16 10:26:38;;;;;;;6.90;6.30;;;;;;;31.80;74.52;100471.59;181393;1257;43915;-89
2023/08/16 10:30:46;;;;;;;8.20;7.50;;;;;;;31.89;73.83;100468.86;181430;1256;43776;-89
2023/08/16 10:35:11;;;;;;;8.00;7.30;;;;;;;31.98;72.65;100462.42;181416;1257;43074;-88
2023/08/16 10:39:24;;;;;;;6.60;5.50;;;;;;;32.10;74.76;100460.02;181514;1257;57918;-88
2023/08/16 10:43:34;;;;;;;7.60;6.90;;;;;;;32.38;73.93;100464.26;181409;1256;44202;-88
2023/08/16 10:47:42;;;;;;;6.60;6.00;;;;;;;32.38;69.16;100467.45;181416;1257;43884;-88
2023/08/16 10:51:51;;;;;;;6.60;6.00;;;;;;;32.33;68.71;100468.77;181429;1257;43810;-88
2023/08/16 10:55:55;;;;;;;7.30;6.20;;;;;;;32.27;68.87;100466.02;181365;1257;43864;-88
2023/08/16 11:00:07;;;;;;;10.40;6.30;;;;;;;32.23;68.25;100465.98;181325;1257;58249;-88
2023/08/16 11:04:11;;;;;;;7.80;7.10;;;;;;;32.17;69.48;100466.39;181408;1257;43785;-89
2023/08/16 11:08:15;;;;;;;8.10;5.90;;;;;;;32.14;68.63;100463.63;181366;1257;43719;-89
2023/08/16 11:12:18;;;;;;;6.90;6.30;;;;;;;32.19;69.81;100465.90;181392;1257;43883;-89
2023/08/16 11:16:23;;;;;;;11.90;6.20;;;;;;;32.33;69.04;100464.17;181544;1257;43879;-87
2023/08/16 11:20:29;;;;;;;8.70;6.80;;;;;;;32.47;68.06;100468.77;181412;1257;57152;-89
2023/08/16 11:24:34;;;;;;;6.60;6.00;;;;;;;32.48;67.35;100469.21;181397;1257;44182;-88
2023/08/16 11:28:40;;;;;;;6.70;6.20;;;;;;;32.62;67.62;100470.64;181484;1257;44029;-89
2023/08/16 11:32:44;;;;;;;6.80;5.20;;;;;;;32.70;67.02;100463.62;181221;1257;44205;-89
2023/08/16 11:37:03;;;;;;;6.80;6.20;;;;;;;32.72;65.80;100459.49;181425;1257;43775;-88
2023/08/16 11:41:18;;;;;;;6.70;6.10;;;;;;;32.75;65.44;100460.83;181379;1257;59885;-89
2023/08/16 11:45:24;;;;;;;6.10;5.60;;;;;;;32.87;65.47;100461.11;181473;1257;43811;-89
2023/08/16 11:49:36;;;;;;;6.00;5.50;;;;;;;33.02;66.32;100465.00;181370;1257;44102;-89
2023/08/16 11:53:41;;;;;;;8.60;6.10;;;;;;;33.15;65.35;100463.86;181414;1256;43834;-90
2023/08/16 11:57:47;;;;;;;6.80;6.10;;;;;;;33.24;63.86;100458.91;181312;1257;43768;-88
2023/08/16 12:01:55;;;;;;;6.40;5.80;;;;;;;33.38;64.38;100450.73;181522;1257;59029;-87
2023/08/16 12:06:05;;;;;;;6.50;5.90;;;;;;;33.55;63.53;100446.44;181449;1256;43931;-89
2023/08/16 12:10:09;;;;;;;7.40;6.80;;;;;;;33.68;67.41;100439.52;181386;1256;43812;-89
2023/08/16 12:14:13;;;;;;;11.80;6.80;;;;;;;33.89;63.45;100443.58;181362;1257;43871;-89
2023/08/16 12:18:18;;;;;;;9.00;7.20;;;;;;;33.99;63.81;100444.63;181388;1257;43863;-89
2023/08/16 12:22:23;;;;;;;7.50;6.60;;;;;;;33.98;62.28;100439.43;181466;1257;58568;-89
2023/08/16 12:26:27;;;;;;;8.80;5.70;;;;;;;33.88;63.12;100436.78;181459;1256;43886;-89
2023/08/16 12:30:31;;;;;;;7.00;6.40;;;;;;;33.77;64.33;100440.33;181394;1257;44113;-88
2023/08/16 12:34:34;;;;;;;6.70;5.40;;;;;;;33.66;65.92;100437.82;181458;1257;43920;-89
2023/08/16 12:38:49;;;;;;;6.20;5.70;;;;;;;33.48;65.47;100435.78;181581;1257;43879;-88
2023/08/16 12:42:52;;;;;;;9.70;7.00;;;;;;;33.33;65.08;100430.97;181390;1257;59322;-89
2023/08/16 12:46:56;;;;;;;6.50;5.90;;;;;;;33.23;65.12;100426.95;181360;1257;43775;-89
2023/08/16 12:51:00;;;;;;;5.20;4.70;;;;;;;33.18;64.91;100429.80;181449;1257;43870;-89
2023/08/16 12:55:07;;;;;;;6.50;5.90;;;;;;;33.05;66.37;100428.76;181481;1256;43751;-89
2023/08/16 12:59:11;;;;;;;7.60;6.30;;;;;;;32.96;66.12;100427.09;181549;1257;43890;-88
2023/08/16 13:03:17;;;;;;;8.70;6.80;;;;;;;33.13;65.93;100420.55;181307;1257;57522;-88
2023/08/16 13:07:35;;;;;;;6.20;5.60;;;;;;;33.22;66.42;100414.88;181444;1257;43792;-89
2023/08/16 13:11:53;;;;;;;5.50;5.00;;;;;;;33.45;64.69;100411.86;181400;1260;43857;-90
2023/08/16 13:16:02;;;;;;;5.20;4.50;;;;;;;33.66;61.63;100411.02;181437;1257;43642;-89
2023/08/16 13:20:09;;;;;;;11.60;6.70;;;;;;;33.78;60.97;100403.38;181507;1257;44021;-89
2023/08/16 13:24:26;;;;;;;5.50;5.00;;;;;;;33.96;62.14;100399.65;181369;1257;58426;-90
2023/08/16 13:28:36;;;;;;;11.80;6.60;;;;;;;34.13;62.54;100403.25;181398;1257;43687;-90
2023/08/16 13:32:51;;;;;;;5.20;4.70;;;;;;;34.10;61.66;100404.42;181372;1256;43951;-88
2023/08/16 13:37:12;;;;;;;5.20;4.80;;;;;;;33.93;61.78;100404.19;181442;1257;43903;-88
2023/08/16 13:41:21;;;;;;;6.50;5.50;;;;;;;33.63;62.19;100402.26;181501;1258;44168;-89
2023/08/16 13:45:29;;;;;;;8.40;5.10;;;;;;;33.42;63.74;100398.84;181390;1257;58041;-88
2023/08/16 13:54:00;;;;;;;5.30;4.80;;;;;;;33.33;63.26;100406.61;181214;1258;47412;-88
2023/08/16 14:02:21;;;;;;;6.10;5.20;;;;;;;33.57;61.71;100401.71;179605;1259;43256;-61
2023/08/16 14:06:25;;;;;;;6.60;5.10;;;;;;;33.71;62.47;100394.02;181539;1259;59565;-61
2023/08/16 14:10:30;;;;;;;5.40;4.90;;;;;;;33.77;64.38;100390.14;181652;1259;43208;-61
2023/08/16 14:14:33;;;;;;;9.20;6.00;;;;;;;33.91;63.10;100390.27;181641;1259;43407;-62
2023/08/16 14:18:37;;;;;;;6.90;5.00;;;;;;;33.99;61.68;100390.38;181467;1258;43888;-62
2023/08/16 14:22:40;;;;;;;4.90;4.50;;;;;;;34.06;61.06;100392.80;181567;1260;43800;-62
2023/08/16 14:26:43;;;;;;;6.40;4.80;;;;;;;34.10;60.46;100391.17;181453;1260;58438;-61
2023/08/16 14:30:48;;;;;;;6.30;5.60;;;;;;;34.09;59.66;100379.48;181489;1259;43071;-61
2023/08/16 14:34:50;;;;;;;;;;;;;;;34.02;59.31;100382.15;181544;1259;42956;-62
2023/08/16 14:38:56;;;;;;;5.00;4.50;;;;;;;33.76;59.57;100378.29;181574;1259;42889;-62
2023/08/16 14:43:03;;;;;;;5.90;5.50;;;;;;;33.45;59.95;100379.75;181461;1259;43660;-61
2023/08/16 14:47:08;;;;;;;5.10;4.60;;;;;;;33.41;60.83;100380.31;181490;1260;58533;-63
2023/08/16 14:51:13;;;;;;;6.00;5.50;;;;;;;33.50;61.93;100387.44;181390;1260;43720;-62
2023/08/16 14:55:16;;;;;;;4.60;4.20;;;;;;;33.69;61.27;100390.89;181614;1259;43523;-62
2023/08/16 14:59:19;;;;;;;9.20;5.70;;;;;;;33.85;60.28;100387.03;181515;1260;43100;-63
2023/08/16 15:03:22;;;;;;;4.80;4.20;;;;;;;33.99;60.31;100388.23;181570;1260;43080;-61
2023/08/16 15:07:26;;;;;;;5.40;4.90;;;;;;;34.02;59.75;100390.49;181445;1260;58038;-62
2023/08/16 15:11:29;;;;;;;6.40;5.70;;;;;;;34.10;60.77;100392.39;181548;1259;42977;-62
2023/08/16 15:15:32;;;;;;;5.80;5.30;;;;;;;34.16;59.46;100388.39;181484;1259;42993;-62
2023/08/16 15:19:41;;;;;;;6.00;5.50;;;;;;;34.09;58.59;100393.00;181582;1258;43738;-63
2023/08/16 15:23:50;;;;;;;5.40;4.90;;;;;;;33.98;58.17;100393.69;181614;1259;43101;-62
2023/08/16 15:27:54;;;;;;;5.70;4.70;;;;;;;33.91;60.31;100391.33;181512;1260;59530;-61
2023/08/16 15:31:57;;;;;;;6.00;5.40;;;;;;;33.76;60.97;100386.28;181577;1260;43262;-62
2023/08/16 15:36:02;;;;;;;9.30;6.30;;;;;;;33.48;62.55;100376.73;181597;1259;43587;-63
2023/08/16 15:40:09;;;;;;;6.30;5.50;;;;;;;33.18;64.09;100374.75;181533;1259;43193;-61
2023/08/16 15:44:15;;;;;;;7.90;6.20;;;;;;;32.91;65.24;100376.11;181578;1259;43430;-63
2023/08/16 15:48:20;;;;;;;7.70;5.60;;;;;;;32.69;66.63;100373.54;181576;1260;58303;-63
2023/08/16 15:52:45;;;;;;;6.40;4.90;;;;;;;32.62;67.55;100362.16;181459;1259;43083;-61
2023/08/16 15:56:49;;;;;;;7.20;5.30;;;;;;;32.67;66.05;100361.47;181563;1260;43664;-61
2023/08/16 16:10:04;;;;;;;6.00;5.50;;;;;;;32.70;67.73;100359.44;163596;1257;59221;-66
2023/08/16 16:14:09;;;;;;;7.60;5.80;;;;;;;32.71;67.67;100354.20;181484;1258;43785;-64
2023/08/16 16:18:13;;;;;;;5.90;5.30;;;;;;;32.70;68.23;100344.89;181463;1258;43157;-65
2023/08/16 16:27:12;;;;;;;6.10;5.10;;;;;;;32.54;67.18;100347.78;180284;1264;59489;-86
2023/08/16 16:31:17;;;;;;;10.20;6.20;;;;;;;32.45;67.66;100347.44;179751;1262;43827;-86
2023/08/16 16:35:24;;;;;;;7.00;6.30;;;;;;;32.32;68.31;100345.40;179591;1260;327460;-87
2023/08/16 16:39:29;;;;;;;6.90;6.20;;;;;;;32.12;68.17;100340.81;179875;1260;44533;-86
2023/08/16 16:43:33;;;;;;;5.70;5.20;;;;;;;31.95;70.51;100344.80;179751;1259;44792;-86
2023/08/16 16:47:37;;;;;;;;;;;;;;;31.79;70.76;100348.58;180084;1260;58186;-86
2023/08/16 16:51:44;;;;;;;8.80;6.40;;;;;;;31.70;71.13;100357.46;179752;1260;45795;-86
2023/08/16 16:55:48;;;;;;;6.90;6.00;;;;;;;31.63;72.42;100361.27;179733;1260;45974;-86
2023/08/16 16:59:52;;;;;;;7.70;5.60;;;;;;;31.56;71.00;100367.88;179934;1260;45968;-86
2023/08/16 17:03:56;;;;;;;6.90;6.30;;;;;;;31.41;70.07;100378.93;179912;1259;45926;-86
2023/08/16 17:08:01;;;;;;;6.30;5.40;;;;;;;31.34;71.02;100386.64;179782;1260;57915;-86
2023/08/16 17:12:09;;;;;;;6.40;5.70;;;;;;;31.23;72.47;100384.45;180280;1260;43983;-86
2023/08/16 17:16:14;;;;;;;9.00;6.70;;;;;;;31.14;73.18;100383.19;179907;1260;44466;-86
2023/08/16 17:20:18;;;;;;;7.30;6.50;;;;;;;31.04;73.28;100389.97;180130;1260;46032;-86
2023/08/16 17:24:23;;;;;;;5.80;5.20;;;;;;;30.93;74.84;100389.38;179901;1261;44633;-86
2023/08/16 17:28:27;;;;;;;;;;;;;;;30.80;76.38;100392.38;179719;1260;59864;-86
2023/08/16 17:32:31;;;;;;;6.30;5.10;;;;;;;30.66;77.13;100394.33;179908;1261;45801;-86
2023/08/16 17:36:36;;;;;;;7.20;5.90;;;;;;;30.47;76.92;100392.66;179811;1263;46008;-86
2023/08/16 17:40:40;;;;;;;8.00;6.20;;;;;;;30.30;77.63;100386.04;179810;1260;44571;-86
2023/08/16 17:44:44;;;;;;;8.00;5.90;;;;;;;30.13;78.85;100385.23;179831;1260;44649;-86
2023/08/16 17:48:48;;;;;;;7.20;5.80;;;;;;;29.95;79.66;100382.70;179834;1260;60044;-86
2023/08/16 17:52:52;;;;;;;7.50;6.70;;;;;;;29.79;80.00;100381.23;180543;1256;45934;-86
2023/08/16 17:57:00;;;;;;;9.00;6.40;;;;;;;29.64;80.88;100385.45;180351;1256;43757;-86
2023/08/16 18:01:08;;;;;;;7.70;6.90;;;;;;;29.46;81.41;100391.09;180180;1256;43792;-87
2023/08/16 18:05:13;;;;;;;6.40;5.80;;;;;;;29.30;82.17;100399.67;180377;1256;43935;-87
2023/08/16 18:09:19;;;;;;;7.50;6.40;;;;;;;29.08;83.81;100398.22;180088;1256;58776;-86
2023/08/16 18:13:23;;;;;;;7.20;6.50;;;;;;;28.87;84.95;100410.55;180306;1256;45999;-86
2023/08/16 18:17:29;;;;;;;7.10;6.30;;;;;;;28.69;86.06;100417.47;180181;1257;45922;-86
2023/08/16 18:21:34;;;;;;;7.60;6.10;;;;;;;28.49;88.07;100414.99;180454;1257;45905;-86
2023/08/16 18:25:39;;;;;;;5.80;5.30;;;;;;;28.32;89.46;100411.96;180095;1256;45977;-86
2023/08/16 18:29:43;;;;;;;9.80;7.00;;;;;;;28.19;90.19;100406.53;180096;1257;59386;-86
2023/08/16 18:33:49;;;;;;;14.30;6.20;;;;;;;28.06;91.11;100398.92;180288;1256;46093;-86
2023/08/16 18:38:03;;;;;;;7.20;6.20;;;;;;;27.91;92.71;100395.05;180116;1256;46003;-86
2023/08/16 18:42:07;;;;;;;;;;;;;;;27.79;93.84;100407.38;179704;1256;46030;-85
2023/08/16 18:46:14;;;;;;;13.10;6.70;;;;;;;27.67;94.78;100413.84;179618;1256;45838;-86
2023/08/16 18:50:19;;;;;;;5.90;5.20;;;;;;;27.61;95.61;100421.52;179666;1257;65634;-87
2023/08/16 18:54:29;;;;;;;8.40;5.60;;;;;;;27.56;96.46;100440.61;179685;1256;46117;-86
2023/08/16 18:58:34;;;;;;;;;;;;;;;27.50;96.78;100460.01;179785;1256;45966;-86
2023/08/16 19:02:38;;;;;;;6.90;5.90;;;;;;;27.43;96.90;100475.88;179728;1256;45829;-85
2023/08/16 19:06:52;;;;;;;8.40;5.90;;;;;;;27.37;96.63;100492.63;180012;1256;45915;-85